Time;durP1;ratioP1;P1;durP2;ratioP2;P2;SDS_P1;SDS_P2;PMS_P1;PMS_P2;Temp;Humidity;BMP_temperature;BMP_pressure;BME280_temperature;BME280_humidity;BME280_pressure;Samples;Min_cycle;Max_cycle;Signal;HPM_P1;HPM_P2
2022/01/22 00:01:47;;;;;;;25.50;2.70;;;;;;;;;;4960784;28;20481;-87
2022/01/22 00:04:13;;;;;;;22.50;2.55;;;;;;;;;;4965346;28;20403;-87
2022/01/22 00:06:39;;;;;;;16.20;2.50;;;;;;;;;;4963257;28;20041;-87
2022/01/22 00:09:06;;;;;;;20.58;3.15;;;;;;;;;;4970653;28;20034;-87
2022/01/22 00:11:39;;;;;;;19.55;2.70;;;;;;;;;;4954410;28;20062;-88
2022/01/22 00:14:24;;;;;;;16.63;2.25;;;;;;;;;;4973860;28;20027;-87
2022/01/22 00:16:57;;;;;;;18.63;2.53;;;;;;;;;;4963355;28;20033;-87
2022/01/22 00:19:24;;;;;;;26.73;1.77;;;;;;;;;;4975632;28;20509;-87
2022/01/22 00:21:50;;;;;;;11.98;2.05;;;;;;;;;;4963487;28;20122;-88
2022/01/22 00:24:16;;;;;;;12.20;2.05;;;;;;;;;;4983301;28;21022;-87
2022/01/22 00:26:43;;;;;;;25.13;2.10;;;;;;;;;;4968806;28;20553;-87
2022/01/22 00:29:10;;;;;;;18.63;3.10;;;;;;;;;;4970227;28;20492;-87
2022/01/22 00:31:37;;;;;;;10.02;1.50;;;;;;;;;;4979259;28;20030;-88
2022/01/22 00:34:03;;;;;;;11.45;2.13;;;;;;;;;;4967811;28;20535;-87
2022/01/22 00:36:29;;;;;;;12.57;1.98;;;;;;;;;;4965367;28;20045;-87
2022/01/22 00:38:55;;;;;;;16.27;3.03;;;;;;;;;;4966762;28;20061;-87
2022/01/22 00:41:21;;;;;;;10.80;2.40;;;;;;;;;;4961516;28;20039;-88
2022/01/22 00:43:48;;;;;;;20.02;1.77;;;;;;;;;;4981878;28;20593;-87
2022/01/22 00:46:14;;;;;;;5.90;1.38;;;;;;;;;;4979541;28;20030;-87
2022/01/22 00:48:40;;;;;;;20.15;2.13;;;;;;;;;;4963094;28;20057;-87
2022/01/22 00:51:06;;;;;;;8.85;1.17;;;;;;;;;;4962076;28;20092;-87
2022/01/22 00:53:32;;;;;;;13.25;1.25;;;;;;;;;;4982127;28;20031;-88
2022/01/22 00:55:58;;;;;;;19.02;1.85;;;;;;;;;;4969050;28;20061;-87
2022/01/22 00:58:24;;;;;;;20.27;2.50;;;;;;;;;;4964609;28;20586;-87
2022/01/22 01:00:51;;;;;;;14.65;1.90;;;;;;;;;;4970385;28;20026;-87
2022/01/22 01:03:17;;;;;;;21.02;2.33;;;;;;;;;;4964245;28;20085;-87
2022/01/22 01:05:43;;;;;;;14.85;2.13;;;;;;;;;;4960220;28;20206;-87
2022/01/22 01:08:09;;;;;;;16.98;1.27;;;;;;;;;;4963714;28;20441;-88
2022/01/22 01:10:35;;;;;;;24.15;2.03;;;;;;;;;;4981639;28;20449;-87
2022/01/22 01:13:01;;;;;;;13.23;1.45;;;;;;;;;;4968259;28;20061;-87
2022/01/22 01:35:39;;;;;;;11.88;1.85;;;;;;;;;;4931795;28;20031;-88
2022/01/22 01:38:07;;;;;;;14.50;1.83;;;;;;;;;;4927622;28;20054;-87
2022/01/22 01:40:36;;;;;;;13.20;1.92;;;;;;;;;;4937710;28;20069;-88
2022/01/22 01:43:17;;;;;;;13.02;2.00;;;;;;;;;;4962355;28;20033;-87
2022/01/22 01:45:43;;;;;;;8.85;1.42;;;;;;;;;;4955859;28;20454;-88
2022/01/22 01:48:15;;;;;;;19.98;1.85;;;;;;;;;;4969958;28;20065;-87
2022/01/22 01:50:42;;;;;;;12.25;1.65;;;;;;;;;;4970328;28;20026;-87
2022/01/22 01:53:15;;;;;;;12.93;1.58;;;;;;;;;;4975686;28;20037;-88
2022/01/22 01:56:03;;;;;;;5.32;1.23;;;;;;;;;;4970430;28;20409;-87
2022/01/22 01:58:28;;;;;;;19.60;1.88;;;;;;;;;;4974864;28;20777;-88
2022/01/22 02:00:54;;;;;;;18.48;1.85;;;;;;;;;;4980354;28;20045;-87
2022/01/22 02:03:21;;;;;;;7.78;1.73;;;;;;;;;;4964356;28;20104;-88
2022/01/22 02:05:47;;;;;;;21.90;2.58;;;;;;;;;;4988925;28;20042;-87
2022/01/22 02:08:13;;;;;;;8.63;1.90;;;;;;;;;;4964280;28;20445;-87
2022/01/22 02:10:46;;;;;;;13.95;1.90;;;;;;;;;;4959490;28;20022;-88
2022/01/22 02:24:15;;;;;;;10.52;1.40;;;;;;;;;;4978473;28;20043;-88
2022/01/22 02:26:46;;;;;;;24.90;2.00;;;;;;;;;;4960439;28;20053;-88
2022/01/22 02:29:12;;;;;;;12.10;1.20;;;;;;;;;;4969453;28;20576;-88
2022/01/22 02:31:42;;;;;;;13.32;2.05;;;;;;;;;;4974458;28;20077;-87
2022/01/22 02:34:27;;;;;;;20.63;2.25;;;;;;;;;;4953672;28;20085;-87
2022/01/22 02:39:24;;;;;;;24.23;2.35;;;;;;;;;;4978432;28;20582;-87
2022/01/22 02:41:51;;;;;;;15.90;2.17;;;;;;;;;;4965595;28;20275;-88
2022/01/22 02:44:43;;;;;;;12.90;1.65;;;;;;;;;;4963458;28;20562;-87
2022/01/22 02:47:09;;;;;;;21.38;2.55;;;;;;;;;;4975696;28;20030;-87
2022/01/22 02:49:35;;;;;;;13.75;1.85;;;;;;;;;;4971237;28;20606;-87
2022/01/22 02:52:04;;;;;;;11.07;1.30;;;;;;;;;;4951132;28;20105;-87
2022/01/22 02:54:30;;;;;;;23.10;2.70;;;;;;;;;;4959940;28;20069;-88
2022/01/22 02:56:56;;;;;;;13.52;1.80;;;;;;;;;;4959763;28;20042;-88
2022/01/22 02:59:23;;;;;;;20.02;1.95;;;;;;;;;;4957164;28;20533;-88
2022/01/22 03:01:50;;;;;;;13.95;1.25;;;;;;;;;;4974409;28;20502;-88
2022/01/22 03:04:16;;;;;;;15.55;1.25;;;;;;;;;;4973889;28;20038;-88
2022/01/22 03:06:42;;;;;;;13.32;1.50;;;;;;;;;;4975692;28;20041;-87
2022/01/22 03:09:16;;;;;;;22.92;2.00;;;;;;;;;;4985822;28;20019;-87
2022/01/22 03:11:58;;;;;;;19.20;2.00;;;;;;;;;;4968029;28;20062;-88
2022/01/22 03:17:13;;;;;;;18.58;2.38;;;;;;;;;;4981744;28;20030;-87
2022/01/22 03:27:37;;;;;;;8.82;1.92;;;;;;;;;;4983116;28;20077;-88
2022/01/22 03:30:04;;;;;;;13.73;1.45;;;;;;;;;;4969263;28;20033;-87
2022/01/22 03:32:40;;;;;;;4.30;1.38;;;;;;;;;;4961593;28;20026;-88
2022/01/22 03:37:36;;;;;;;14.23;1.08;;;;;;;;;;4976298;28;20042;-88
2022/01/22 03:40:03;;;;;;;8.70;0.95;;;;;;;;;;4963866;28;20035;-87
2022/01/22 03:42:29;;;;;;;8.48;1.30;;;;;;;;;;4961985;28;20513;-88
2022/01/22 03:44:55;;;;;;;15.68;1.45;;;;;;;;;;4966433;28;20042;-88
2022/01/22 03:47:21;;;;;;;5.15;1.00;;;;;;;;;;4962508;28;20059;-88
2022/01/22 03:49:54;;;;;;;7.82;1.38;;;;;;;;;;4965955;28;20058;-87
2022/01/22 03:52:20;;;;;;;5.28;1.02;;;;;;;;;;4971416;28;20104;-88
2022/01/22 03:54:46;;;;;;;19.80;1.40;;;;;;;;;;4966703;28;20085;-87
2022/01/22 03:57:13;;;;;;;11.45;1.30;;;;;;;;;;4969674;28;20090;-87
2022/01/22 03:59:39;;;;;;;5.72;1.00;;;;;;;;;;4959956;28;20030;-87
2022/01/22 04:04:41;;;;;;;2.58;1.02;;;;;;;;;;4980948;28;20134;-87
2022/01/22 04:09:43;;;;;;;8.98;1.38;;;;;;;;;;4977530;28;20038;-87
2022/01/22 04:12:12;;;;;;;8.15;1.45;;;;;;;;;;4966604;28;20041;-87
2022/01/22 04:14:45;;;;;;;6.03;1.45;;;;;;;;;;4974501;28;20324;-87
2022/01/22 04:25:14;;;;;;;12.90;1.95;;;;;;;;;;4977628;28;20050;-87
2022/01/22 04:27:40;;;;;;;16.20;2.33;;;;;;;;;;4975342;28;20030;-88
2022/01/22 04:30:06;;;;;;;10.65;1.85;;;;;;;;;;4964044;28;20410;-87
2022/01/22 04:32:33;;;;;;;25.23;1.95;;;;;;;;;;4957166;28;20045;-87
2022/01/22 04:35:00;;;;;;;11.68;1.50;;;;;;;;;;4962683;28;20475;-87
2022/01/22 04:37:26;;;;;;;13.77;2.10;;;;;;;;;;4962296;28;20482;-87
2022/01/22 04:39:52;;;;;;;22.48;1.83;;;;;;;;;;4965448;28;20045;-88
2022/01/22 04:42:19;;;;;;;10.60;0.90;;;;;;;;;;4955964;28;20046;-87
2022/01/22 04:45:47;;;;;;;8.80;1.63;;;;;;;;;;4966729;28;20125;-87
2022/01/22 04:55:44;;;;;;;4.20;1.00;;;;;;;;;;4976563;28;20353;-87
2022/01/22 04:58:10;;;;;;;8.65;1.17;;;;;;;;;;4961081;28;20032;-87
2022/01/22 05:00:37;;;;;;;4.88;1.48;;;;;;;;;;4974764;28;20031;-88
2022/01/22 05:03:04;;;;;;;6.20;1.30;;;;;;;;;;4960341;28;20030;-87
2022/01/22 05:05:30;;;;;;;5.80;1.02;;;;;;;;;;4966838;28;20038;-87
2022/01/22 05:07:59;;;;;;;10.10;1.40;;;;;;;;;;4961755;28;20039;-87
2022/01/22 05:10:25;;;;;;;9.93;1.58;;;;;;;;;;4977037;28;20031;-87
2022/01/22 05:12:53;;;;;;;9.35;1.30;;;;;;;;;;4976820;28;20214;-87
2022/01/22 05:15:19;;;;;;;21.00;2.28;;;;;;;;;;4965749;28;20029;-87
2022/01/22 05:17:46;;;;;;;10.27;0.95;;;;;;;;;;4963118;28;20395;-87
2022/01/22 05:20:43;;;;;;;7.20;1.42;;;;;;;;;;4985191;28;20030;-87
2022/01/22 05:23:12;;;;;;;6.55;1.60;;;;;;;;;;4979915;28;20038;-87
2022/01/22 05:25:59;;;;;;;18.83;2.10;;;;;;;;;;4964811;28;20033;-86
2022/01/22 05:31:36;;;;;;;20.15;2.38;;;;;;;;;;4978009;28;20096;-87
2022/01/22 05:36:58;;;;;;;14.25;1.67;;;;;;;;;;4979285;28;20034;-87
2022/01/22 05:39:25;;;;;;;16.95;1.88;;;;;;;;;;4967708;28;20483;-87
2022/01/22 05:41:51;;;;;;;24.75;2.08;;;;;;;;;;4976159;28;20056;-87
2022/01/22 05:44:18;;;;;;;7.40;1.63;;;;;;;;;;4957520;28;20155;-87
2022/01/22 05:46:44;;;;;;;8.32;1.60;;;;;;;;;;4947712;28;20034;-87
2022/01/22 05:49:10;;;;;;;10.40;1.25;;;;;;;;;;4944285;28;20047;-87
2022/01/22 05:51:39;;;;;;;18.27;2.10;;;;;;;;;;4956745;28;20062;-87
2022/01/22 05:59:56;;;;;;;21.73;1.98;;;;;;;;;;4962496;28;20053;-87
2022/01/22 06:02:16;;;;;;;19.10;1.45;;;;;;;;;;4955590;28;20035;-87
2022/01/22 06:04:43;;;;;;;5.63;1.00;;;;;;;;;;4948193;28;20098;-86
2022/01/22 06:07:09;;;;;;;21.60;1.83;;;;;;;;;;4941499;28;20453;-86
2022/01/22 06:09:39;;;;;;;3.22;0.80;;;;;;;;;;4950458;28;20058;-87
2022/01/22 06:14:34;;;;;;;16.02;1.95;;;;;;;;;;4960281;28;20451;-87
2022/01/22 06:17:00;;;;;;;19.65;1.60;;;;;;;;;;4956831;28;20039;-87
2022/01/22 06:19:26;;;;;;;14.30;1.35;;;;;;;;;;4957822;28;20305;-86
2022/01/22 06:21:53;;;;;;;23.98;1.50;;;;;;;;;;4956089;28;20574;-86
2022/01/22 06:24:19;;;;;;;13.75;1.65;;;;;;;;;;4945999;28;20517;-86
2022/01/22 06:26:45;;;;;;;11.15;1.88;;;;;;;;;;4946046;28;20619;-86
2022/01/22 06:29:12;;;;;;;17.95;2.30;;;;;;;;;;4944911;28;20030;-86
2022/01/22 06:31:38;;;;;;;8.40;1.48;;;;;;;;;;4961361;28;20031;-87
2022/01/22 06:34:04;;;;;;;24.67;1.83;;;;;;;;;;4957721;28;20031;-87
2022/01/22 06:36:31;;;;;;;17.42;1.85;;;;;;;;;;4948440;28;20026;-87
2022/01/22 06:39:10;;;;;;;14.98;1.98;;;;;;;;;;4955791;28;20105;-87
2022/01/22 06:41:45;;;;;;;11.50;1.48;;;;;;;;;;4953260;28;20098;-87
2022/01/22 06:44:12;;;;;;;9.35;1.77;;;;;;;;;;4946354;28;20113;-87
2022/01/22 06:46:39;;;;;;;8.95;1.33;;;;;;;;;;4961544;28;20047;-87
2022/01/22 06:49:05;;;;;;;15.70;1.73;;;;;;;;;;4980123;28;20045;-87
2022/01/22 06:51:32;;;;;;;9.13;2.38;;;;;;;;;;4964113;28;20053;-87
2022/01/22 06:53:58;;;;;;;11.52;1.83;;;;;;;;;;4962488;28;20512;-87
2022/01/22 06:56:25;;;;;;;10.73;1.65;;;;;;;;;;4960629;28;20069;-87
2022/01/22 06:58:51;;;;;;;17.08;2.28;;;;;;;;;;4956971;28;20057;-87
2022/01/22 07:01:17;;;;;;;8.30;2.42;;;;;;;;;;4960219;28;20545;-87
2022/01/22 07:03:43;;;;;;;14.65;2.08;;;;;;;;;;4964231;28;20042;-87
2022/01/22 07:06:09;;;;;;;16.13;1.90;;;;;;;;;;4957077;28;20045;-87
2022/01/22 07:08:35;;;;;;;5.32;1.27;;;;;;;;;;4964544;28;20125;-87
2022/01/22 07:11:01;;;;;;;16.10;1.77;;;;;;;;;;4980875;28;20069;-87
2022/01/22 07:13:27;;;;;;;13.32;2.10;;;;;;;;;;4964949;28;20140;-87
2022/01/22 07:15:53;;;;;;;15.80;1.42;;;;;;;;;;4968002;28;20109;-87
2022/01/22 07:18:19;;;;;;;9.77;1.75;;;;;;;;;;4955795;28;20487;-87
2022/01/22 07:20:45;;;;;;;14.65;1.55;;;;;;;;;;4970560;28;20030;-87
2022/01/22 07:25:56;;;;;;;12.15;1.80;;;;;;;;;;4972094;28;20434;-87
2022/01/22 07:28:23;;;;;;;3.30;1.30;;;;;;;;;;4945661;28;20519;-87
2022/01/22 07:30:49;;;;;;;7.28;1.27;;;;;;;;;;4979049;28;20206;-87
2022/01/22 07:33:15;;;;;;;10.68;1.67;;;;;;;;;;4961730;28;20664;-87
2022/01/22 07:35:41;;;;;;;5.47;1.00;;;;;;;;;;4979368;28;20487;-87
2022/01/22 07:38:09;;;;;;;9.05;1.60;;;;;;;;;;4963735;28;20034;-87
2022/01/22 07:40:35;;;;;;;7.35;1.52;;;;;;;;;;4975770;28;20106;-87
2022/01/22 07:43:01;;;;;;;17.85;2.00;;;;;;;;;;4979825;28;20034;-87
2022/01/22 07:45:28;;;;;;;10.70;1.02;;;;;;;;;;4960036;28;20058;-87
2022/01/22 07:47:54;;;;;;;9.38;1.45;;;;;;;;;;4965345;28;20050;-87
2022/01/22 07:50:20;;;;;;;17.40;2.00;;;;;;;;;;4963584;28;20038;-87
2022/01/22 07:52:46;;;;;;;1.42;0.50;;;;;;;;;;4979947;28;20113;-87
2022/01/22 07:55:12;;;;;;;6.35;1.13;;;;;;;;;;4962280;28;20094;-87
2022/01/22 07:57:38;;;;;;;16.90;1.60;;;;;;;;;;4970544;28;20051;-87
2022/01/22 08:00:06;;;;;;;9.82;1.20;;;;;;;;;;4959644;28;20126;-87
2022/01/22 08:02:32;;;;;;;16.75;1.17;;;;;;;;;;4960827;28;20030;-87
2022/01/22 08:04:58;;;;;;;3.75;1.48;;;;;;;;;;4959877;28;20034;-87
2022/01/22 08:07:24;;;;;;;6.50;0.70;;;;;;;;;;4955676;28;20044;-87
2022/01/22 08:09:50;;;;;;;8.27;2.78;;;;;;;;;;4962385;28;20390;-86
2022/01/22 08:12:17;;;;;;;10.93;2.35;;;;;;;;;;4959934;28;20034;-86
2022/01/22 08:14:43;;;;;;;9.10;1.13;;;;;;;;;;4959302;28;20681;-87
2022/01/22 08:17:09;;;;;;;3.13;0.63;;;;;;;;;;4962311;28;20474;-87
2022/01/22 08:19:35;;;;;;;6.22;0.77;;;;;;;;;;4962397;28;20100;-86
2022/01/22 08:22:01;;;;;;;2.85;0.82;;;;;;;;;;4956421;28;20495;-87
2022/01/22 08:24:28;;;;;;;4.15;0.98;;;;;;;;;;4975212;28;20081;-87
2022/01/22 08:28:53;;;;;;;6.38;1.08;;;;;;;;;;4962012;28;20118;-88
2022/01/22 08:29:49;;;;;;;11.30;1.20;;;;;;;;;;4960365;28;20519;-87
2022/01/22 08:38:04;;;;;;;8.93;1.10;;;;;;;;;;4904417;29;20028;-86
2022/01/22 08:40:30;;;;;;;12.60;1.42;;;;;;;;;;4898405;29;20224;-86
2022/01/22 08:42:56;;;;;;;5.70;1.38;;;;;;;;;;4937859;28;20050;-85
2022/01/22 08:45:22;;;;;;;9.88;1.42;;;;;;;;;;4965797;28;20436;-86
2022/01/22 08:47:48;;;;;;;12.00;1.55;;;;;;;;;;4960854;28;20054;-86
2022/01/22 08:50:14;;;;;;;10.70;1.25;;;;;;;;;;4966665;28;20022;-85
2022/01/22 08:52:40;;;;;;;7.70;1.00;;;;;;;;;;4964852;28;20027;-86
2022/01/22 08:55:07;;;;;;;20.65;1.38;;;;;;;;;;4978741;28;20030;-86
2022/01/22 08:57:33;;;;;;;13.77;2.08;;;;;;;;;;4976548;28;20514;-86
2022/01/22 08:59:59;;;;;;;15.27;1.40;;;;;;;;;;4984134;28;20035;-85
2022/01/22 09:02:25;;;;;;;3.17;1.08;;;;;;;;;;4975341;28;20042;-86
2022/01/22 09:04:53;;;;;;;15.13;1.27;;;;;;;;;;4984321;28;20605;-86
2022/01/22 09:07:19;;;;;;;11.13;1.08;;;;;;;;;;4960939;28;20030;-86
2022/01/22 09:09:48;;;;;;;13.55;1.48;;;;;;;;;;4964762;28;20113;-86
2022/01/22 09:12:15;;;;;;;3.92;0.68;;;;;;;;;;4959729;28;20054;-86
2022/01/22 09:14:41;;;;;;;13.27;1.17;;;;;;;;;;4963427;28;20033;-86
2022/01/22 09:17:08;;;;;;;2.42;0.85;;;;;;;;;;4978860;28;20399;-86
2022/01/22 09:19:35;;;;;;;11.27;1.20;;;;;;;;;;4956094;28;20054;-87
2022/01/22 09:22:02;;;;;;;2.03;1.00;;;;;;;;;;4974622;28;20074;-86
2022/01/22 09:24:28;;;;;;;9.38;1.45;;;;;;;;;;4968273;28;20049;-87
2022/01/22 09:26:57;;;;;;;14.70;1.63;;;;;;;;;;4973874;28;20034;-86
2022/01/22 09:29:24;;;;;;;7.82;1.38;;;;;;;;;;4972557;28;20486;-86
2022/01/22 09:31:50;;;;;;;20.40;1.85;;;;;;;;;;4965412;28;20065;-86
2022/01/22 09:34:16;;;;;;;14.80;1.60;;;;;;;;;;4960217;28;20476;-86
2022/01/22 09:36:45;;;;;;;9.57;1.08;;;;;;;;;;4965781;28;20141;-86
2022/01/22 09:39:11;;;;;;;5.75;1.17;;;;;;;;;;4979883;28;20041;-86
2022/01/22 09:41:37;;;;;;;6.75;0.93;;;;;;;;;;4962141;28;20431;-86
2022/01/22 09:44:03;;;;;;;6.00;1.40;;;;;;;;;;4979731;28;20038;-86
2022/01/22 09:46:30;;;;;;;13.98;1.27;;;;;;;;;;4955377;28;20598;-88
2022/01/22 09:48:56;;;;;;;14.27;1.27;;;;;;;;;;4943470;28;20097;-88
2022/01/22 09:51:22;;;;;;;12.23;1.48;;;;;;;;;;4953003;28;20034;-88
2022/01/22 09:53:49;;;;;;;3.03;1.05;;;;;;;;;;4958034;28;20054;-90
2022/01/22 09:56:24;;;;;;;8.10;1.88;;;;;;;;;;4937801;28;20116;-89
2022/01/22 09:58:51;;;;;;;5.15;1.20;;;;;;;;;;4956231;28;20440;-86
2022/01/22 10:01:27;;;;;;;10.55;1.38;;;;;;;;;;4938202;28;20031;-89
2022/01/22 10:04:01;;;;;;;6.63;1.10;;;;;;;;;;4961342;28;20458;-88
2022/01/22 10:06:35;;;;;;;15.20;2.80;;;;;;;;;;4939420;28;20041;-87
2022/01/22 10:09:25;;;;;;;10.85;2.13;;;;;;;;;;4942521;28;20531;-86
2022/01/22 10:12:07;;;;;;;9.07;2.13;;;;;;;;;;4942997;28;20423;-90
2022/01/22 10:14:35;;;;;;;11.52;1.90;;;;;;;;;;4945390;28;20818;-88
2022/01/22 10:17:02;;;;;;;8.90;1.35;;;;;;;;;;4946485;28;20042;-85
2022/01/22 10:19:28;;;;;;;5.15;1.55;;;;;;;;;;4957065;28;20041;-86
2022/01/22 10:22:02;;;;;;;7.53;1.52;;;;;;;;;;4958278;28;20050;-85
2022/01/22 10:24:50;;;;;;;6.32;1.92;;;;;;;;;;4944784;28;20038;-86
2022/01/22 10:27:29;;;;;;;9.10;3.05;;;;;;;;;;4967072;28;20031;-86
2022/01/22 10:30:02;;;;;;;21.02;2.25;;;;;;;;;;4968534;28;20031;-86
2022/01/22 10:35:23;;;;;;;17.45;1.75;;;;;;;;;;4961268;28;20046;-86
2022/01/22 10:37:54;;;;;;;9.52;1.63;;;;;;;;;;4938619;28;20046;-85
2022/01/22 10:40:27;;;;;;;15.80;2.08;;;;;;;;;;4946864;28;20365;-85
2022/01/22 10:43:12;;;;;;;13.68;1.80;;;;;;;;;;4943245;28;20039;-85
2022/01/22 10:45:46;;;;;;;12.30;2.20;;;;;;;;;;4965287;28;20615;-85
2022/01/22 10:48:21;;;;;;;4.65;1.88;;;;;;;;;;4958444;28;20636;-85
2022/01/22 10:51:00;;;;;;;5.72;1.50;;;;;;;;;;4959255;28;20535;-85
2022/01/22 10:53:39;;;;;;;5.88;1.35;;;;;;;;;;4952476;28;20034;-85
2022/01/22 10:56:06;;;;;;;6.70;1.38;;;;;;;;;;4939104;28;20492;-85
2022/01/22 10:58:33;;;;;;;11.30;1.65;;;;;;;;;;4947609;28;20612;-87
2022/01/22 11:01:00;;;;;;;16.30;1.90;;;;;;;;;;4952824;28;20272;-86
2022/01/22 11:03:28;;;;;;;10.90;1.80;;;;;;;;;;4960490;28;20511;-87
2022/01/22 11:05:54;;;;;;;9.73;1.77;;;;;;;;;;4947468;28;20029;-85
2022/01/22 11:08:20;;;;;;;12.45;1.92;;;;;;;;;;4941966;28;20034;-86
2022/01/22 11:10:46;;;;;;;13.43;2.58;;;;;;;;;;4943482;28;20042;-86
2022/01/22 11:13:13;;;;;;;15.98;2.45;;;;;;;;;;4939068;28;20479;-87
2022/01/22 11:15:40;;;;;;;8.93;1.63;;;;;;;;;;4944918;28;20166;-87
2022/01/22 11:18:08;;;;;;;5.05;1.27;;;;;;;;;;4938231;28;20488;-84
2022/01/22 11:20:34;;;;;;;15.27;2.10;;;;;;;;;;4942539;28;20087;-87
2022/01/22 11:23:01;;;;;;;8.35;1.75;;;;;;;;;;4950511;28;20026;-85
2022/01/22 11:25:27;;;;;;;8.02;2.67;;;;;;;;;;4940393;28;20581;-85
2022/01/22 11:30:39;;;;;;;6.18;1.70;;;;;;;;;;4956950;28;20076;-86
2022/01/22 11:33:10;;;;;;;11.77;1.80;;;;;;;;;;4935876;28;20122;-84
2022/01/22 11:35:52;;;;;;;20.10;2.45;;;;;;;;;;4941215;28;20396;-85
2022/01/22 11:38:20;;;;;;;17.58;2.00;;;;;;;;;;4943266;28;20063;-91
2022/01/22 11:41:05;;;;;;;5.10;2.03;;;;;;;;;;4938333;28;20027;-88
2022/01/22 11:43:55;;;;;;;18.08;1.98;;;;;;;;;;4947144;28;20046;-84
2022/01/22 11:46:28;;;;;;;16.90;3.03;;;;;;;;;;4966468;28;20046;-83
2022/01/22 11:49:13;;;;;;;16.00;2.22;;;;;;;;;;4959208;28;20037;-84
2022/01/22 11:51:39;;;;;;;22.50;2.10;;;;;;;;;;4961632;28;20117;-85
2022/01/22 11:54:06;;;;;;;12.85;2.42;;;;;;;;;;4963650;28;20585;-84
2022/01/22 11:56:41;;;;;;;9.73;2.33;;;;;;;;;;4957084;28;20394;-87
2022/01/22 11:59:25;;;;;;;12.68;2.60;;;;;;;;;;4961549;28;20035;-88
2022/01/22 12:01:56;;;;;;;25.95;2.22;;;;;;;;;;4958958;28;20061;-84
2022/01/22 12:04:23;;;;;;;17.42;2.70;;;;;;;;;;4963176;28;20030;-84
2022/01/22 12:07:02;;;;;;;21.48;2.58;;;;;;;;;;4961867;28;20401;-86
2022/01/22 12:09:31;;;;;;;24.27;2.50;;;;;;;;;;4973374;28;20022;-85
2022/01/22 12:14:49;;;;;;;28.52;3.33;;;;;;;;;;4974481;28;20049;-86
2022/01/22 12:17:28;;;;;;;14.10;2.47;;;;;;;;;;4960162;28;20503;-85
2022/01/22 12:22:49;;;;;;;10.68;2.20;;;;;;;;;;4980966;28;20081;-83
2022/01/22 12:25:15;;;;;;;19.50;3.15;;;;;;;;;;4958519;28;20271;-85
2022/01/22 12:27:45;;;;;;;21.80;3.72;;;;;;;;;;4967352;28;20255;-85
2022/01/22 12:30:12;;;;;;;14.13;2.67;;;;;;;;;;4962567;28;20048;-85
2022/01/22 12:32:45;;;;;;;16.02;2.90;;;;;;;;;;4966465;28;20026;-84
2022/01/22 12:35:17;;;;;;;15.80;4.28;;;;;;;;;;4964260;28;20031;-85
2022/01/22 12:37:48;;;;;;;18.65;3.22;;;;;;;;;;4985818;28;20085;-84
2022/01/22 12:40:26;;;;;;;14.65;2.33;;;;;;;;;;4960786;28;20471;-86
2022/01/22 12:43:15;;;;;;;14.70;4.40;;;;;;;;;;4971488;28;20554;-85
2022/01/22 12:45:43;;;;;;;10.98;2.15;;;;;;;;;;4982002;28;20038;-86
2022/01/22 12:48:12;;;;;;;17.92;4.07;;;;;;;;;;4984080;28;20034;-84
2022/01/22 12:50:46;;;;;;;21.20;3.33;;;;;;;;;;4982805;28;20394;-82
2022/01/22 12:53:13;;;;;;;28.15;4.35;;;;;;;;;;4969342;28;20499;-81
2022/01/22 12:58:52;;;;;;;13.38;3.35;;;;;;;;;;4988949;28;20097;-83
2022/01/22 13:01:41;;;;;;;17.13;4.55;;;;;;;;;;4937439;28;20521;-83
2022/01/22 13:04:09;;;;;;;19.30;3.78;;;;;;;;;;4984591;28;20034;-83
2022/01/22 13:06:44;;;;;;;26.98;4.45;;;;;;;;;;4969657;28;20189;-83
2022/01/22 13:09:20;;;;;;;18.20;4.05;;;;;;;;;;4970513;28;20418;-85
2022/01/22 13:11:50;;;;;;;21.73;4.28;;;;;;;;;;4970423;28;20496;-82
2022/01/22 13:14:27;;;;;;;24.38;4.95;;;;;;;;;;4967804;28;20103;-84
2022/01/22 13:16:54;;;;;;;30.83;4.78;;;;;;;;;;4968617;28;20410;-82
2022/01/22 13:19:21;;;;;;;13.38;3.67;;;;;;;;;;4967932;28;20059;-82
2022/01/22 13:21:55;;;;;;;25.58;4.28;;;;;;;;;;4969137;28;20046;-82
2022/01/22 13:24:23;;;;;;;18.83;3.88;;;;;;;;;;4979472;28;20120;-83
2022/01/22 13:26:59;;;;;;;13.77;2.72;;;;;;;;;;4965490;28;20061;-82
2022/01/22 13:29:30;;;;;;;20.08;3.10;;;;;;;;;;4965638;28;20447;-83
2022/01/22 13:31:57;;;;;;;27.40;4.13;;;;;;;;;;4964070;28;20023;-83
2022/01/22 13:34:47;;;;;;;18.55;3.33;;;;;;;;;;4966399;28;20113;-83
2022/01/22 13:40:21;;;;;;;14.98;3.38;;;;;;;;;;4984871;28;20300;-82
2022/01/22 13:47:56;;;;;;;18.85;3.13;;;;;;;;;;4981878;28;20045;-82
2022/01/22 13:50:22;;;;;;;5.82;1.70;;;;;;;;;;4974574;28;20394;-83
2022/01/22 13:52:49;;;;;;;14.82;2.80;;;;;;;;;;4977362;28;20069;-83
2022/01/22 13:55:16;;;;;;;18.05;2.20;;;;;;;;;;4974948;28;20501;-85
2022/01/22 13:57:44;;;;;;;10.93;1.70;;;;;;;;;;4964239;28;20033;-82
2022/01/22 14:00:12;;;;;;;9.40;2.22;;;;;;;;;;4967675;28;20033;-85
2022/01/22 14:05:15;;;;;;;19.02;2.75;;;;;;;;;;4979924;28;20041;-84
2022/01/22 14:07:46;;;;;;;14.30;2.90;;;;;;;;;;4978551;28;20046;-82
2022/01/22 14:10:16;;;;;;;11.98;1.90;;;;;;;;;;4979419;28;20057;-82
2022/01/22 14:12:50;;;;;;;9.50;1.63;;;;;;;;;;4978469;28;20264;-83
2022/01/22 14:15:28;;;;;;;7.25;1.02;;;;;;;;;;4985417;28;20035;-82
2022/01/22 14:18:05;;;;;;;14.00;2.03;;;;;;;;;;4965953;28;20517;-82
2022/01/22 14:20:31;;;;;;;5.75;2.03;;;;;;;;;;4980341;28;20030;-82
2022/01/22 14:23:06;;;;;;;23.25;2.78;;;;;;;;;;4967846;28;20041;-82
2022/01/22 14:25:34;;;;;;;14.67;2.40;;;;;;;;;;4968712;28;20113;-82
2022/01/22 14:28:00;;;;;;;21.85;2.25;;;;;;;;;;4968982;28;20979;-82
2022/01/22 14:30:49;;;;;;;21.33;2.72;;;;;;;;;;4967803;28;20554;-81
2022/01/22 14:33:17;;;;;;;17.00;1.95;;;;;;;;;;4966205;28;20050;-82
2022/01/22 14:35:44;;;;;;;10.45;1.70;;;;;;;;;;4964820;28;20109;-83
2022/01/22 14:38:40;;;;;;;16.27;2.72;;;;;;;;;;4981628;28;20085;-83
2022/01/22 14:46:53;;;;;;;23.30;2.35;;;;;;;;;;4978516;28;20064;-83
2022/01/22 14:49:23;;;;;;;6.57;1.75;;;;;;;;;;4979380;28;20077;-82
2022/01/22 14:51:49;;;;;;;11.43;1.70;;;;;;;;;;4977869;28;20574;-83
2022/01/22 14:54:16;;;;;;;14.43;1.60;;;;;;;;;;4971183;28;20033;-82
2022/01/22 14:56:43;;;;;;;19.73;1.77;;;;;;;;;;4973299;28;20062;-82
2022/01/22 14:59:09;;;;;;;17.10;2.10;;;;;;;;;;4968849;28;20041;-83
2022/01/22 15:01:35;;;;;;;5.88;1.42;;;;;;;;;;4962255;28;20027;-83
2022/01/22 15:04:01;;;;;;;15.48;1.83;;;;;;;;;;4984944;28;20521;-82
2022/01/22 15:06:27;;;;;;;12.27;1.88;;;;;;;;;;4964585;28;20047;-82
2022/01/22 15:08:53;;;;;;;11.90;1.48;;;;;;;;;;4968430;28;20027;-82
2022/01/22 15:11:20;;;;;;;15.25;2.80;;;;;;;;;;4980204;28;20023;-83
2022/01/22 15:13:46;;;;;;;25.77;2.33;;;;;;;;;;4967074;28;20557;-83
2022/01/22 15:16:16;;;;;;;11.13;0.95;;;;;;;;;;4980189;28;20032;-83
2022/01/22 15:18:59;;;;;;;10.40;1.98;;;;;;;;;;4957990;28;20030;-84
2022/01/22 15:21:25;;;;;;;8.40;1.20;;;;;;;;;;4971793;28;20486;-83
2022/01/22 15:23:51;;;;;;;13.48;1.88;;;;;;;;;;4959609;28;20097;-82
2022/01/22 15:26:17;;;;;;;7.78;1.70;;;;;;;;;;4960480;28;20513;-84
2022/01/22 15:28:45;;;;;;;11.52;1.95;;;;;;;;;;4962901;28;20041;-83
2022/01/22 15:31:38;;;;;;;9.48;1.48;;;;;;;;;;4977830;28;20052;-83
2022/01/22 15:34:13;;;;;;;4.40;1.42;;;;;;;;;;4975726;28;20029;-83
2022/01/22 15:36:40;;;;;;;13.10;1.90;;;;;;;;;;4962026;28;20038;-86
2022/01/22 15:39:08;;;;;;;16.92;2.33;;;;;;;;;;4959975;28;20035;-88
2022/01/22 15:41:34;;;;;;;12.45;1.98;;;;;;;;;;4962684;28;20462;-86
2022/01/22 15:44:04;;;;;;;8.85;1.50;;;;;;;;;;4975672;28;20029;-83
2022/01/22 15:46:38;;;;;;;8.55;1.52;;;;;;;;;;4962948;28;20498;-83
2022/01/22 15:49:04;;;;;;;12.93;2.08;;;;;;;;;;4973513;28;20022;-83
2022/01/22 15:51:30;;;;;;;9.60;1.75;;;;;;;;;;4968942;28;20029;-82
2022/01/22 15:53:56;;;;;;;10.48;2.40;;;;;;;;;;4962310;28;20034;-86
2022/01/22 15:56:23;;;;;;;4.32;1.50;;;;;;;;;;4976198;28;20075;-84
2022/01/22 15:58:49;;;;;;;7.05;2.13;;;;;;;;;;4972162;28;20399;-89
2022/01/22 16:01:16;;;;;;;15.43;1.90;;;;;;;;;;4962496;28;20733;-84
2022/01/22 16:03:45;;;;;;;7.70;2.13;;;;;;;;;;4962975;28;20510;-84
2022/01/22 16:06:19;;;;;;;28.70;3.22;;;;;;;;;;4977812;28;20068;-82
2022/01/22 16:08:48;;;;;;;18.42;2.60;;;;;;;;;;4963180;28;20046;-87
2022/01/22 16:11:15;;;;;;;9.13;1.83;;;;;;;;;;4963030;28;20027;-85
2022/01/22 16:13:42;;;;;;;19.10;4.65;;;;;;;;;;4961461;28;20055;-85
2022/01/22 16:16:08;;;;;;;19.55;4.03;;;;;;;;;;4958100;28;20030;-86
2022/01/22 16:18:34;;;;;;;13.80;3.38;;;;;;;;;;4959863;28;20102;-87
2022/01/22 16:21:07;;;;;;;8.32;3.20;;;;;;;;;;4955747;28;20460;-84
2022/01/22 16:23:34;;;;;;;5.35;2.50;;;;;;;;;;4973053;28;20088;-82
2022/01/22 16:26:00;;;;;;;11.98;1.65;;;;;;;;;;4955112;28;20680;-81
2022/01/22 16:28:28;;;;;;;9.57;2.08;;;;;;;;;;4979205;28;20090;-83
2022/01/22 16:30:54;;;;;;;7.45;2.10;;;;;;;;;;4972592;28;20529;-89
2022/01/22 16:33:21;;;;;;;16.15;2.03;;;;;;;;;;4962440;28;20019;-90
2022/01/22 16:35:51;;;;;;;15.07;2.53;;;;;;;;;;4961509;28;20515;-84
2022/01/22 16:38:18;;;;;;;19.90;2.70;;;;;;;;;;4961596;28;20038;-88
2022/01/22 16:40:44;;;;;;;11.73;2.08;;;;;;;;;;4978495;28;20113;-85
2022/01/22 16:43:10;;;;;;;20.20;2.45;;;;;;;;;;4956436;28;20121;-84
2022/01/22 16:56:08;;;;;;;13.32;2.47;;;;;;;;;;4960418;28;20034;-85
2022/01/22 16:58:36;;;;;;;18.95;3.35;;;;;;;;;;4945027;28;20046;-85